Time;durP1;ratioP1;P1;durP2;ratioP2;P2;SDS_P1;SDS_P2;PMS_P1;PMS_P2;Temp;Humidity;BMP_temperature;BMP_pressure;BME280_temperature;BME280_humidity;BME280_pressure;Samples;Min_cycle;Max_cycle;Signal;HPM_P1;HPM_P2
2021/12/24 00:01:33;;;;;;;20.00;10.82;;;;;;;-0.85;85.69;96855.16;1732175;81;21448;-57
2021/12/24 00:04:00;;;;;;;15.90;7.55;;;;;;;-0.85;84.84;96852.50;1775126;79;21048;-57
2021/12/24 00:06:27;;;;;;;17.30;10.20;;;;;;;-0.81;84.89;96846.17;1779422;78;20997;-57
2021/12/24 00:08:55;;;;;;;28.57;15.35;;;;;;;-0.83;85.51;96812.36;1755804;80;21016;-57
2021/12/24 00:11:22;;;;;;;20.88;11.43;;;;;;;-0.88;88.35;96829.02;1760685;80;20993;-57
2021/12/24 00:13:51;;;;;;;29.48;13.90;;;;;;;-0.93;89.40;96835.58;1779610;80;20985;-57
2021/12/24 00:16:25;;;;;;;16.87;10.53;;;;;;;-0.84;89.46;96840.81;1716851;82;26514;-57
2021/12/24 00:19:13;;;;;;;18.98;10.48;;;;;;;-0.96;89.00;96833.36;1752134;80;21045;-57
2021/12/24 00:35:28;;;;;;;16.42;9.80;;;;;;;-0.98;88.41;96815.52;1764159;81;20969;-57
2021/12/24 00:37:46;;;;;;;18.17;9.00;;;;;;;-0.98;88.43;96818.17;1738545;82;21275;-57
2021/12/24 00:40:18;;;;;;;19.67;11.63;;;;;;;-0.99;88.29;96814.70;1739713;81;21270;-57
2021/12/24 00:42:52;;;;;;;15.00;7.40;;;;;;;-0.95;88.22;96804.39;1739875;82;21064;-57
2021/12/24 00:45:23;;;;;;;15.45;9.88;;;;;;;-0.92;88.09;96791.98;1738977;80;21417;-57
2021/12/24 00:47:50;;;;;;;16.32;9.80;;;;;;;-0.92;88.04;96771.50;1737432;82;20997;-57
2021/12/24 00:50:21;;;;;;;18.92;10.63;;;;;;;-0.91;87.88;96765.14;1735145;82;22047;-57
2021/12/24 00:55:17;;;;;;;22.82;10.72;;;;;;;-0.89;88.03;96760.38;1764307;81;20973;-57
2021/12/24 00:57:48;;;;;;;14.85;9.95;;;;;;;-0.88;87.90;96758.53;1769112;80;21437;-57
2021/12/24 01:00:26;;;;;;;15.38;9.60;;;;;;;-0.89;87.90;96752.41;1778487;79;21004;-57
2021/12/24 01:02:54;;;;;;;10.93;6.87;;;;;;;-0.89;87.80;96751.08;1746482;82;21806;-57
2021/12/24 01:05:23;;;;;;;17.80;9.58;;;;;;;-0.82;87.65;96755.45;1742817;80;21513;-57
2021/12/24 01:07:50;;;;;;;6.78;4.80;;;;;;;-0.88;87.55;96748.70;1737562;82;28111;-57
2021/12/24 01:10:21;;;;;;;15.32;9.18;;;;;;;-0.81;87.27;96749.08;1766489;78;21043;-57
2021/12/24 01:12:48;;;;;;;15.60;9.80;;;;;;;-0.84;87.21;96746.91;1748822;81;20948;-57
2021/12/24 01:15:15;;;;;;;14.47;9.10;;;;;;;-0.79;86.98;96727.03;1745363;80;21364;-57
2021/12/24 01:17:55;;;;;;;16.48;9.18;;;;;;;-0.79;86.81;96725.18;1748590;81;21039;-57
2021/12/24 01:20:25;;;;;;;12.40;7.25;;;;;;;-0.78;86.88;96718.00;1753469;81;21000;-57
2021/12/24 01:25:42;;;;;;;16.10;6.87;;;;;;;-0.70;86.78;96712.30;1755213;80;21378;-57
2021/12/24 01:28:31;;;;;;;13.35;8.05;;;;;;;-0.68;86.62;96711.56;1735947;82;21271;-57
2021/12/24 01:38:57;;;;;;;17.27;8.53;;;;;;;-0.64;86.72;96694.86;1737684;82;21013;-57
2021/12/24 01:41:18;;;;;;;12.70;8.58;;;;;;;-0.65;86.87;96691.11;1733859;82;21313;-57
2021/12/24 01:43:36;;;;;;;11.05;6.40;;;;;;;-0.63;86.70;96683.16;1735790;82;26359;-57
2021/12/24 01:46:03;;;;;;;16.85;9.03;;;;;;;-0.61;86.71;96678.92;1737274;80;21056;-57
2021/12/24 01:48:30;;;;;;;15.05;8.88;;;;;;;-0.61;86.84;96666.95;1737500;82;21060;-57
2021/12/24 01:50:57;;;;;;;15.25;9.63;;;;;;;-0.60;86.75;96668.56;1737253;81;21032;-57
2021/12/24 01:53:24;;;;;;;9.45;6.42;;;;;;;-0.59;86.58;96669.68;1737580;82;21002;-57
2021/12/24 01:55:52;;;;;;;12.85;7.90;;;;;;;-0.58;86.57;96667.30;1737312;82;20993;-57
2021/12/24 01:58:21;;;;;;;16.10;8.98;;;;;;;-0.54;86.51;96667.61;1737672;82;21025;-57
2021/12/24 02:00:50;;;;;;;10.45;6.33;;;;;;;-0.55;86.37;96654.55;1736970;80;21147;-57
2021/12/24 02:03:18;;;;;;;15.78;9.28;;;;;;;-0.53;86.18;96662.56;1737436;82;27590;-57
2021/12/24 02:05:45;;;;;;;14.58;7.90;;;;;;;-0.55;86.42;96653.22;1737136;82;21441;-57
2021/12/24 02:08:12;;;;;;;18.10;10.60;;;;;;;-0.57;86.50;96646.28;1737425;82;21453;-57
2021/12/24 02:10:39;;;;;;;15.28;8.93;;;;;;;-0.54;86.53;96651.64;1763897;81;21021;-56
2021/12/24 02:13:06;;;;;;;14.28;8.65;;;;;;;-0.54;86.63;96650.31;1732285;82;21056;-57
2021/12/24 02:15:59;;;;;;;14.13;8.68;;;;;;;-0.47;86.60;96645.64;1723060;80;21071;-57
2021/12/24 02:29:09;;;;;;;15.40;9.35;;;;;;;-0.56;87.18;96629.80;1732148;82;21004;-57
2021/12/24 02:31:36;;;;;;;16.75;9.28;;;;;;;-0.57;87.68;96619.68;1733603;81;21408;-58
2021/12/24 02:34:03;;;;;;;16.52;8.88;;;;;;;-0.49;87.95;96599.84;1776054;79;20950;-57
2021/12/24 02:36:30;;;;;;;16.00;9.30;;;;;;;-0.51;88.34;96607.77;1759002;80;20976;-58
2021/12/24 02:38:57;;;;;;;17.95;10.25;;;;;;;-0.54;88.37;96608.27;1746009;81;21373;-57
2021/12/24 02:41:24;;;;;;;16.85;9.28;;;;;;;-0.59;88.57;96607.15;1764003;81;21076;-57
2021/12/24 02:43:51;;;;;;;16.25;9.58;;;;;;;-0.57;88.95;96589.61;1739702;82;21291;-58
2021/12/24 02:46:34;;;;;;;17.98;9.13;;;;;;;-0.56;89.16;96575.25;1739513;82;22018;-57
2021/12/24 02:49:04;;;;;;;15.40;7.10;;;;;;;-0.56;89.24;96564.60;1739094;82;20984;-57
2021/12/24 02:54:14;;;;;;;11.83;7.17;;;;;;;-0.55;89.10;96571.53;1739740;82;21112;-57
2021/12/24 02:56:50;;;;;;;18.10;9.53;;;;;;;-0.52;89.18;96563.05;1739674;82;22055;-57
2021/12/24 02:59:12;;;;;;;13.15;8.13;;;;;;;-0.56;89.36;96565.94;1735073;82;20981;-57
2021/12/24 03:01:42;;;;;;;15.53;8.78;;;;;;;-0.52;89.06;96566.23;1735266;82;21449;-57
2021/12/24 03:04:10;;;;;;;17.48;10.38;;;;;;;-0.52;89.28;96574.22;1735090;82;20989;-57
2021/12/24 03:06:40;;;;;;;16.17;11.03;;;;;;;-0.57;89.62;96550.50;1735109;82;21246;-57
2021/12/24 03:09:09;;;;;;;19.60;9.55;;;;;;;-0.57;89.53;96562.47;1760875;81;21048;-57
2021/12/24 03:11:36;;;;;;;16.65;10.63;;;;;;;-0.52;89.36;96549.75;1739697;80;21000;-57
2021/12/24 03:14:05;;;;;;;16.62;10.90;;;;;;;-0.53;89.33;96535.36;1774150;79;21005;-57
2021/12/24 03:16:32;;;;;;;13.05;6.95;;;;;;;-0.52;89.40;96541.77;1765278;80;21509;-56
2021/12/24 03:18:58;;;;;;;15.48;8.65;;;;;;;-0.48;89.23;96536.77;1739918;82;21009;-57
2021/12/24 03:21:32;;;;;;;10.75;6.05;;;;;;;-0.41;89.00;96545.39;1739781;82;21329;-57
2021/12/24 03:26:39;;;;;;;16.42;9.05;;;;;;;-0.41;88.74;96547.53;1737618;81;21445;-57
2021/12/24 03:29:08;;;;;;;14.35;9.30;;;;;;;-0.40;88.50;96545.14;1738476;82;21517;-57
2021/12/24 03:31:37;;;;;;;14.83;8.60;;;;;;;-0.37;88.33;96532.66;1739897;82;21488;-57
2021/12/24 03:34:06;;;;;;;17.55;13.88;;;;;;;-0.36;88.37;96546.77;1740108;82;21388;-57
2021/12/24 03:36:33;;;;;;;14.23;7.87;;;;;;;-0.37;88.25;96535.33;1764255;79;20981;-57
2021/12/24 03:39:00;;;;;;;20.37;12.20;;;;;;;-0.31;87.92;96541.53;1732221;82;20974;-57
2021/12/24 03:41:27;;;;;;;17.57;10.05;;;;;;;-0.33;87.77;96527.67;1764415;80;21056;-57
2021/12/24 03:43:53;;;;;;;14.98;8.68;;;;;;;-0.27;87.48;96527.19;1764295;80;21445;-57
2021/12/24 03:46:29;;;;;;;14.43;9.38;;;;;;;-0.31;87.56;96529.55;1739660;82;21309;-57
2021/12/24 03:48:55;;;;;;;14.03;7.42;;;;;;;-0.32;87.59;96538.06;1756275;80;24644;-57
2021/12/24 03:56:38;;;;;;;14.65;8.83;;;;;;;-0.27;87.55;96523.20;1764205;80;21010;-57
2021/12/24 03:59:05;;;;;;;13.43;8.03;;;;;;;-0.24;87.68;96528.85;1739906;82;21435;-57
2021/12/24 04:01:33;;;;;;;16.20;9.38;;;;;;;-0.23;87.53;96535.78;1740175;82;20978;-57
2021/12/24 04:04:00;;;;;;;14.28;8.68;;;;;;;-0.22;87.55;96528.59;1739918;82;21028;-57
2021/12/24 04:06:27;;;;;;;12.78;7.62;;;;;;;-0.19;87.61;96524.09;1739788;82;21001;-57
2021/12/24 04:08:54;;;;;;;15.53;9.95;;;;;;;-0.19;87.46;96522.24;1740054;82;21449;-57
2021/12/24 04:11:21;;;;;;;16.97;8.10;;;;;;;-0.19;87.62;96534.22;1739925;81;21059;-57
2021/12/24 04:13:48;;;;;;;14.07;8.48;;;;;;;-0.15;87.63;96534.02;1739790;82;20988;-57
2021/12/24 04:16:15;;;;;;;16.20;9.28;;;;;;;-0.13;87.53;96528.45;1720543;80;21027;-57
2021/12/24 04:19:17;;;;;;;13.35;8.28;;;;;;;-0.15;87.66;96523.38;1740017;82;20985;-57
2021/12/24 04:26:53;;;;;;;13.43;8.90;;;;;;;-0.08;87.74;96517.34;1745282;82;21048;-57
2021/12/24 04:29:20;;;;;;;10.50;7.20;;;;;;;-0.04;87.83;96512.31;1752688;81;21035;-57
2021/12/24 04:31:55;;;;;;;14.55;7.33;;;;;;;-0.03;88.06;96509.92;1747712;80;21416;-57
2021/12/24 04:34:16;;;;;;;12.82;7.42;;;;;;;-0.01;88.76;96505.14;1746011;82;27651;-57
2021/12/24 04:37:11;;;;;;;10.35;6.92;;;;;;;0.02;88.22;96500.67;1742415;81;21010;-57
2021/12/24 05:01:10;;;;;;;113.85;54.48;;;;;;;0.19;88.41;96489.94;1732083;81;20971;-57
2021/12/24 05:03:43;;;;;;;75.70;37.80;;;;;;;0.31;88.31;96485.78;1750284;81;21362;-58
2021/12/24 05:06:25;;;;;;;;;;;;;;;0.33;88.16;96490.32;1745159;81;21047;-57
2021/12/24 05:08:52;;;;;;;14.87;9.53;;;;;;;0.38;88.33;96497.84;1752215;81;20172;-63
2021/12/24 05:11:19;;;;;;;11.88;7.00;;;;;;;0.39;88.56;96480.80;1747102;81;20978;-57
2021/12/24 05:13:48;;;;;;;10.07;6.67;;;;;;;0.42;88.50;96479.48;1742267;82;20976;-57
2021/12/24 05:21:35;;;;;;;7.60;4.85;;;;;;;0.54;88.67;96471.63;1751894;81;21397;-57
2021/12/24 05:24:05;;;;;;;6.78;4.47;;;;;;;0.58;88.64;96464.44;1746996;82;21036;-57
2021/12/24 05:26:33;;;;;;;9.15;5.90;;;;;;;0.63;88.87;96462.63;1759446;80;21068;-57
2021/12/24 05:29:00;;;;;;;8.55;5.30;;;;;;;0.69;88.97;96466.16;1737493;82;21337;-57
2021/12/24 05:31:27;;;;;;;9.88;5.90;;;;;;;0.73;88.73;96474.70;1737446;82;20997;-57
2021/12/24 05:33:54;;;;;;;7.28;4.95;;;;;;;0.77;88.67;96466.48;1751184;80;21047;-57
2021/12/24 05:36:21;;;;;;;9.58;8.08;;;;;;;0.80;88.72;96460.63;1758471;81;21473;-57
2021/12/24 05:38:48;;;;;;;10.72;6.30;;;;;;;0.87;88.87;96467.09;1745050;81;21503;-57
2021/12/24 05:41:15;;;;;;;9.83;7.33;;;;;;;0.88;88.68;96474.56;1746749;81;21011;-57
2021/12/24 05:43:41;;;;;;;10.80;5.83;;;;;;;0.92;88.81;96481.78;1758170;80;20956;-58
2021/12/24 05:46:08;;;;;;;8.93;5.10;;;;;;;0.95;88.73;96483.95;1749748;80;21134;-57
2021/12/24 05:48:35;;;;;;;7.62;5.00;;;;;;;0.98;88.74;96481.30;1737308;82;21029;-57
2021/12/24 05:51:03;;;;;;;7.42;5.85;;;;;;;1.00;88.72;96472.51;1737485;82;21017;-57
2021/12/24 05:53:29;;;;;;;7.75;4.22;;;;;;;1.03;88.79;96478.16;1729746;81;22126;-58
2021/12/24 05:55:56;;;;;;;12.10;6.55;;;;;;;1.06;88.99;96466.95;1724810;80;22082;-57
2021/12/24 05:58:24;;;;;;;11.68;6.53;;;;;;;1.07;89.14;96470.42;1746797;81;22008;-57
2021/12/24 06:00:50;;;;;;;12.85;6.33;;;;;;;1.07;89.10;96472.56;1758226;81;21000;-57
2021/12/24 06:03:17;;;;;;;19.75;14.03;;;;;;;1.07;89.04;96473.90;1749763;81;20995;-57
2021/12/24 06:05:45;;;;;;;9.95;6.92;;;;;;;1.09;89.12;96478.97;1737984;81;21407;-57
2021/12/24 06:08:12;;;;;;;47.15;24.52;;;;;;;1.10;89.13;96476.04;1742466;81;21438;-57
2021/12/24 06:10:39;;;;;;;40.67;22.35;;;;;;;1.10;89.26;96476.57;1747618;80;21000;-57
2021/12/24 06:13:06;;;;;;;57.98;31.70;;;;;;;1.11;89.25;96475.01;1763997;81;21066;-58
2021/12/24 06:15:41;;;;;;;39.70;21.33;;;;;;;1.09;89.36;96462.43;1758060;81;21504;-57
2021/12/24 06:18:11;;;;;;;25.15;13.43;;;;;;;1.09;90.01;96467.77;1743991;80;21609;-57
2021/12/24 06:20:31;;;;;;;21.93;10.05;;;;;;;1.11;90.19;96460.84;1740833;81;28510;-57
2021/12/24 06:22:58;;;;;;;14.58;6.90;;;;;;;1.12;89.93;96459.80;1765175;79;21001;-57
2021/12/24 06:25:25;;;;;;;17.27;9.05;;;;;;;1.16;90.09;96469.41;1767494;79;21044;-57
2021/12/24 06:27:51;;;;;;;17.85;8.45;;;;;;;1.16;89.98;96462.22;1769807;80;21028;-57
2021/12/24 06:30:18;;;;;;;27.93;12.03;;;;;;;1.18;90.35;96464.63;1732140;82;21283;-57
2021/12/24 06:32:45;;;;;;;35.55;16.07;;;;;;;1.19;90.08;96473.70;1763938;79;20965;-57
2021/12/24 06:35:12;;;;;;;33.35;11.88;;;;;;;1.21;90.36;96474.80;1763838;80;21539;-57
2021/12/24 06:37:39;;;;;;;34.70;13.15;;;;;;;1.22;90.45;96473.73;1764591;79;21438;-57
2021/12/24 06:40:08;;;;;;;13.83;8.13;;;;;;;1.25;90.47;96483.88;1764208;81;20973;-57
2021/12/24 06:42:35;;;;;;;21.27;10.60;;;;;;;1.24;90.52;96480.41;1736354;81;21052;-57
2021/12/24 06:45:02;;;;;;;25.82;12.23;;;;;;;1.24;90.41;96484.41;1769635;80;21457;-57
2021/12/24 06:47:29;;;;;;;12.82;7.62;;;;;;;1.26;90.38;96485.48;1764596;80;21031;-57
2021/12/24 06:49:57;;;;;;;10.58;5.37;;;;;;;1.27;90.34;96493.77;1766123;80;21454;-60
2021/12/24 06:52:24;;;;;;;11.68;6.03;;;;;;;1.28;90.39;96487.36;1765541;80;21063;-57
2021/12/24 06:54:51;;;;;;;17.70;7.90;;;;;;;1.28;90.34;96481.52;1750010;80;22086;-57
2021/12/24 06:57:19;;;;;;;15.03;10.20;;;;;;;1.28;90.26;96485.52;1769325;80;21504;-57
2021/12/24 06:59:47;;;;;;;9.68;6.42;;;;;;;1.29;90.04;96494.33;1740072;82;21418;-57
2021/12/24 07:02:14;;;;;;;12.47;8.65;;;;;;;1.29;90.08;96493.00;1749191;80;22122;-57
2021/12/24 07:04:41;;;;;;;11.18;8.40;;;;;;;1.29;89.97;96495.66;1765035;80;21066;-57
2021/12/24 07:07:08;;;;;;;31.85;11.80;;;;;;;1.31;90.04;96498.34;1767240;80;21470;-57
2021/12/24 07:09:41;;;;;;;18.60;9.65;;;;;;;1.36;89.99;96494.89;1746932;82;21453;-57
2021/12/24 07:12:05;;;;;;;31.12;15.88;;;;;;;1.35;90.32;96485.27;1772908;80;21009;-57
2021/12/24 07:14:36;;;;;;;30.10;11.38;;;;;;;1.37;90.72;96486.64;1757640;81;21444;-57
2021/12/24 07:17:01;;;;;;;84.95;32.30;;;;;;;1.42;90.75;96488.52;1739524;81;20987;-57
2021/12/24 07:19:28;;;;;;;37.55;15.88;;;;;;;1.44;90.60;96494.41;1744158;80;22222;-57
2021/12/24 07:21:55;;;;;;;39.50;17.12;;;;;;;1.47;90.59;96488.56;1765755;80;21373;-57
2021/12/24 07:24:22;;;;;;;44.77;15.93;;;;;;;1.49;90.56;96489.10;1739491;82;21047;-57
2021/12/24 07:26:49;;;;;;;42.03;22.62;;;;;;;1.52;90.39;96493.91;1739457;82;21013;-57
2021/12/24 07:29:15;;;;;;;42.62;16.62;;;;;;;1.54;90.56;96489.64;1764609;80;21108;-57
2021/12/24 07:31:42;;;;;;;31.17;14.47;;;;;;;1.58;90.80;96492.09;1739830;82;21398;-57
2021/12/24 07:34:09;;;;;;;39.23;15.68;;;;;;;1.59;90.55;96493.16;1739588;80;21449;-57
2021/12/24 07:36:36;;;;;;;41.60;22.00;;;;;;;1.61;91.10;96483.02;1759698;80;21181;-57
2021/12/24 07:39:03;;;;;;;39.53;20.30;;;;;;;1.65;90.85;96493.46;1747617;82;21035;-57
2021/12/24 07:41:30;;;;;;;44.77;15.40;;;;;;;1.66;90.88;96495.06;1739381;82;21501;-57
2021/12/24 07:43:57;;;;;;;27.67;13.43;;;;;;;1.68;90.83;96496.14;1768242;80;21307;-57
2021/12/24 07:46:31;;;;;;;24.77;11.03;;;;;;;1.73;91.26;96492.17;1755539;80;21036;-57
2021/12/24 07:49:01;;;;;;;32.65;12.70;;;;;;;1.76;90.75;96490.30;1762814;81;21994;-57
2021/12/24 07:54:06;;;;;;;31.90;15.03;;;;;;;1.84;90.92;96488.47;1739310;82;21028;-57
2021/12/24 07:56:33;;;;;;;21.15;13.08;;;;;;;1.89;90.71;96485.83;1765505;80;21484;-57
2021/12/24 07:59:01;;;;;;;40.83;16.25;;;;;;;1.95;90.58;96483.96;1735749;82;21064;-57
2021/12/24 08:01:28;;;;;;;77.00;29.18;;;;;;;2.04;90.29;96474.91;1763790;80;20993;-57
2021/12/24 08:03:56;;;;;;;70.72;21.57;;;;;;;2.13;90.26;96479.47;1762834;80;21052;-57
2021/12/24 08:06:24;;;;;;;35.58;13.48;;;;;;;2.17;90.24;96484.58;1763011;80;21001;-58
2021/12/24 08:08:51;;;;;;;18.17;8.05;;;;;;;2.19;90.23;96495.80;1740253;82;21412;-57
2021/12/24 08:11:18;;;;;;;10.48;5.90;;;;;;;2.20;90.35;96488.59;1741360;82;21289;-57
2021/12/24 08:13:44;;;;;;;94.83;30.62;;;;;;;2.23;90.23;96493.42;1738981;82;21429;-57
2021/12/24 08:16:13;;;;;;;85.25;29.72;;;;;;;2.26;90.12;96480.86;1754604;80;21001;-57
2021/12/24 08:18:43;;;;;;;35.10;15.55;;;;;;;2.32;90.04;96472.33;1759238;80;21524;-57
2021/12/24 08:21:09;;;;;;;57.83;26.68;;;;;;;2.35;89.94;96475.80;1759531;80;25770;-57
2021/12/24 08:23:36;;;;;;;38.90;19.65;;;;;;;2.38;89.92;96468.58;1762421;79;21008;-57
2021/12/24 08:26:03;;;;;;;41.92;17.02;;;;;;;2.40;89.84;96473.95;1744388;80;21013;-57
2021/12/24 08:28:30;;;;;;;16.90;7.92;;;;;;;2.39;89.76;96480.34;1763145;80;20981;-57
2021/12/24 08:30:57;;;;;;;63.87;35.73;;;;;;;2.41;89.81;96482.77;1727088;82;21473;-57
2021/12/24 08:33:23;;;;;;;16.93;9.65;;;;;;;2.40;89.69;96474.48;1740641;81;21386;-57
2021/12/24 08:35:50;;;;;;;42.30;17.00;;;;;;;2.40;89.74;96481.17;1741120;81;21052;-57
2021/12/24 08:38:19;;;;;;;47.15;21.42;;;;;;;2.44;89.75;96476.34;1763404;80;21002;-57
2021/12/24 08:40:46;;;;;;;86.63;33.65;;;;;;;2.47;89.72;96473.67;1761015;80;20962;-57
2021/12/24 08:43:13;;;;;;;29.82;12.88;;;;;;;2.50;89.58;96475.84;1755926;80;21291;-57
2021/12/24 08:45:40;;;;;;;34.88;14.53;;;;;;;2.51;89.59;96473.42;1771584;80;21508;-57
2021/12/24 08:48:07;;;;;;;46.68;17.57;;;;;;;2.57;89.54;96483.07;1765200;80;20966;-57
2021/12/24 08:50:33;;;;;;;32.40;18.20;;;;;;;2.63;89.50;96479.31;1764037;80;20997;-57
2021/12/24 08:53:00;;;;;;;46.33;25.25;;;;;;;2.69;89.58;96461.41;1764247;80;21064;-57
2021/12/24 08:55:27;;;;;;;38.50;18.60;;;;;;;2.74;89.52;96453.39;1759681;80;21310;-57
2021/12/24 08:57:54;;;;;;;43.38;21.95;;;;;;;2.73;89.38;96458.45;1762481;80;21452;-57
2021/12/24 09:00:23;;;;;;;50.12;26.15;;;;;;;2.76;89.38;96464.09;1767131;80;20960;-57
2021/12/24 09:02:50;;;;;;;49.10;26.82;;;;;;;2.76;89.30;96468.64;1745363;82;21008;-57
2021/12/24 09:05:17;;;;;;;56.73;29.10;;;;;;;2.80;89.42;96467.02;1763921;81;20969;-57
2021/12/24 09:07:43;;;;;;;80.55;31.25;;;;;;;2.83;89.35;96466.50;1764901;80;21000;-57
2021/12/24 09:10:11;;;;;;;98.97;42.43;;;;;;;2.88;89.44;96467.82;1756540;80;22087;-57
2021/12/24 09:12:39;;;;;;;71.70;34.23;;;;;;;2.94;89.25;96449.91;1747205;80;21412;-57
2021/12/24 09:15:07;;;;;;;48.35;27.05;;;;;;;2.99;89.33;96447.20;1763444;80;20985;-57
2021/12/24 09:17:34;;;;;;;33.10;19.32;;;;;;;3.01;89.27;96443.20;1759538;80;21000;-56
2021/12/24 09:20:01;;;;;;;37.13;20.72;;;;;;;3.08;89.31;96441.60;1767432;80;21028;-57
2021/12/24 09:22:34;;;;;;;78.60;35.05;;;;;;;3.14;89.25;96434.34;1764645;80;21407;-57
2021/12/24 09:24:59;;;;;;;109.65;38.75;;;;;;;3.17;89.17;96431.15;1746933;81;21043;-57
2021/12/24 09:27:26;;;;;;;43.52;19.55;;;;;;;3.21;89.06;96437.02;1734560;82;20997;-57
2021/12/24 09:29:53;;;;;;;59.95;28.60;;;;;;;3.25;88.85;96418.55;1739400;81;21069;-57
2021/12/24 09:32:20;;;;;;;83.35;35.88;;;;;;;3.29;88.93;96423.08;1740927;81;21536;-57
2021/12/24 09:34:47;;;;;;;59.05;29.32;;;;;;;3.27;88.82;96409.70;1735362;82;21312;-57
2021/12/24 09:37:14;;;;;;;25.70;10.95;;;;;;;3.36;89.01;96410.75;1719616;82;20950;-57
2021/12/24 09:39:41;;;;;;;33.83;18.00;;;;;;;3.47;88.88;96414.19;1732959;81;20967;-56
2021/12/24 09:42:09;;;;;;;63.05;26.68;;;;;;;3.48;88.78;96413.91;1764787;81;20961;-57
2021/12/24 09:44:36;;;;;;;115.92;51.65;;;;;;;3.50;88.74;96412.30;1740322;82;21017;-57
2021/12/24 09:47:04;;;;;;;179.72;66.97;;;;;;;3.52;88.78;96402.13;1750424;81;21414;-57
2021/12/24 09:49:31;;;;;;;116.25;53.58;;;;;;;3.57;88.69;96408.80;1740035;81;20889;-57
2021/12/24 09:51:58;;;;;;;78.40;44.98;;;;;;;3.58;88.59;96406.38;1769456;80;21453;-57
2021/12/24 09:54:25;;;;;;;90.17;46.37;;;;;;;3.56;88.62;96409.88;1744387;80;20989;-57
2021/12/24 09:56:54;;;;;;;91.25;41.40;;;;;;;3.54;88.64;96408.81;1763210;80;21048;-57
2021/12/24 09:59:21;;;;;;;63.58;27.05;;;;;;;3.55;88.60;96404.25;1763107;80;21023;-56
2021/12/24 10:01:55;;;;;;;45.55;24.35;;;;;;;3.57;88.74;96396.73;1763469;80;21071;-57
2021/12/24 10:04:26;;;;;;;74.60;35.68;;;;;;;3.61;88.69;96399.15;1769270;80;21429;-57
2021/12/24 10:07:05;;;;;;;73.30;38.90;;;;;;;3.63;88.65;96404.48;1748558;82;20969;-56
2021/12/24 10:09:38;;;;;;;76.53;35.83;;;;;;;3.65;88.70;96407.69;1761407;80;20965;-57
2021/12/24 10:12:14;;;;;;;23.22;11.88;;;;;;;3.65;88.60;96402.33;1753970;81;20953;-56
2021/12/24 10:14:50;;;;;;;13.03;7.12;;;;;;;3.76;88.62;96387.55;1768285;80;20926;-57
2021/12/24 10:17:22;;;;;;;45.08;20.45;;;;;;;3.85;88.40;96381.90;1776954;80;20938;-56
2021/12/24 10:19:53;;;;;;;32.40;16.25;;;;;;;3.89;88.48;96378.91;1762753;80;20965;-57
2021/12/24 10:22:20;;;;;;;16.35;11.22;;;;;;;3.89;88.30;96373.02;1744600;81;21614;-57
2021/12/24 10:25:02;;;;;;;28.62;15.70;;;;;;;3.89;88.46;96386.41;1753042;80;21398;-57
2021/12/24 10:27:31;;;;;;;20.35;11.90;;;;;;;3.92;88.51;96383.17;1753503;81;21036;-57
2021/12/24 10:29:59;;;;;;;27.77;13.68;;;;;;;3.92;88.36;96375.67;1753713;81;21371;-57
2021/12/24 10:32:26;;;;;;;51.65;25.77;;;;;;;3.92;88.41;96363.07;1753822;81;22013;-57
2021/12/24 10:34:53;;;;;;;31.42;16.15;;;;;;;3.97;88.40;96366.28;1749778;80;21481;-56
2021/12/24 10:37:25;;;;;;;21.68;12.90;;;;;;;4.03;88.36;96369.20;1746003;82;21370;-57
2021/12/24 10:39:56;;;;;;;25.60;14.90;;;;;;;4.01;88.27;96355.79;1751814;81;21027;-57
2021/12/24 10:42:32;;;;;;;35.83;17.27;;;;;;;4.01;88.35;96360.61;1753714;81;21001;-57
2021/12/24 10:45:00;;;;;;;14.98;11.63;;;;;;;4.07;88.23;96370.23;1753415;80;20989;-57
2021/12/24 10:47:35;;;;;;;59.08;28.27;;;;;;;4.08;88.11;96371.03;1740757;81;20994;-57
2021/12/24 10:53:01;;;;;;;46.25;25.08;;;;;;;4.09;88.13;96357.34;1754255;81;21044;-57
2021/12/24 10:55:36;;;;;;;60.60;35.35;;;;;;;4.13;88.18;96357.61;1772460;79;20997;-57
2021/12/24 10:58:06;;;;;;;66.30;28.12;;;;;;;4.15;87.99;96346.85;1737230;82;21446;-57
2021/12/24 11:00:39;;;;;;;22.13;12.25;;;;;;;4.16;88.13;96348.45;1767914;80;21048;-57
2021/12/24 11:03:09;;;;;;;24.75;12.03;;;;;;;4.21;88.13;96346.28;1742446;81;21736;-57
2021/12/24 11:05:40;;;;;;;10.60;5.67;;;;;;;4.24;88.06;96345.17;1749088;80;20949;-57
2021/12/24 11:08:14;;;;;;;35.92;18.15;;;;;;;4.33;87.94;96354.77;1738936;82;21339;-57
2021/12/24 11:10:47;;;;;;;56.58;30.17;;;;;;;4.31;87.80;96372.22;1778488;80;21000;-57
2021/12/24 11:13:17;;;;;;;275.45;90.87;;;;;;;4.32;87.85;96361.21;1772940;80;21001;-57
2021/12/24 11:15:51;;;;;;;107.40;38.28;;;;;;;4.42;87.63;96336.98;1736863;81;21191;-57
2021/12/24 11:18:25;;;;;;;226.18;81.42;;;;;;;4.49;87.22;96340.70;1735136;82;21009;-57
2021/12/24 11:21:08;;;;;;;55.65;26.42;;;;;;;4.51;87.45;96331.28;1735399;82;20992;-57
2021/12/24 11:23:37;;;;;;;203.83;73.78;;;;;;;4.64;87.10;96320.45;1734054;81;20992;-57
2021/12/24 11:26:11;;;;;;;124.20;48.95;;;;;;;4.68;87.17;96312.63;1730493;82;21032;-57
2021/12/24 11:28:39;;;;;;;48.17;20.75;;;;;;;4.80;86.81;96317.09;1723494;80;21028;-57
2021/12/24 11:31:19;;;;;;;26.37;11.10;;;;;;;4.83;86.84;96329.13;1723162;82;20996;-58
2021/12/24 11:33:47;;;;;;;70.52;32.90;;;;;;;4.91;86.56;96307.03;1732694;82;21087;-57
2021/12/24 11:36:17;;;;;;;29.40;14.35;;;;;;;4.96;86.42;96308.34;1746251;82;20996;-58
2021/12/24 11:38:46;;;;;;;45.52;24.65;;;;;;;5.00;86.02;96314.72;1747338;80;21047;-58
2021/12/24 11:41:15;;;;;;;14.65;9.05;;;;;;;5.11;86.08;96312.17;1747495;82;21067;-57
2021/12/24 11:43:45;;;;;;;21.65;13.90;;;;;;;5.23;85.58;96325.22;1739659;82;21534;-57
2021/12/24 11:46:15;;;;;;;39.40;22.62;;;;;;;5.17;85.55;96326.35;1735237;82;21069;-57
2021/12/24 11:48:44;;;;;;;15.78;12.43;;;;;;;5.17;85.67;96322.33;1737916;82;21420;-57
2021/12/24 11:51:29;;;;;;;43.85;24.55;;;;;;;5.10;85.63;96313.27;1749615;82;21340;-57
2021/12/24 11:54:04;;;;;;;24.72;16.15;;;;;;;5.09;85.78;96315.70;1746733;82;21057;-57
2021/12/24 11:56:46;;;;;;;19.52;10.48;;;;;;;5.13;85.91;96308.69;1750578;81;21438;-57
2021/12/24 11:59:13;;;;;;;23.50;14.07;;;;;;;5.16;85.88;96316.16;1745713;81;21132;-57
2021/12/24 12:01:42;;;;;;;37.28;23.65;;;;;;;5.18;85.78;96305.13;1767587;80;20954;-56
2021/12/24 12:04:16;;;;;;;28.15;19.32;;;;;;;5.16;85.95;96312.13;1733338;81;21476;-56
2021/12/24 12:06:43;;;;;;;19.00;9.93;;;;;;;5.19;85.92;96312.09;1728427;81;21071;-57
2021/12/24 12:09:11;;;;;;;21.73;13.65;;;;;;;5.10;86.05;96300.64;1744126;81;21048;-56
2021/12/24 12:11:41;;;;;;;17.70;9.88;;;;;;;5.13;86.26;96290.40;1718374;82;21004;-57
2021/12/24 12:14:23;;;;;;;11.93;7.35;;;;;;;5.16;86.21;96300.05;1737548;82;21005;-56
2021/12/24 12:16:55;;;;;;;12.55;6.72;;;;;;;5.19;86.21;96288.72;1736818;82;21099;-57
2021/12/24 12:22:32;;;;;;;17.00;9.30;;;;;;;5.22;86.17;96271.25;1748582;80;21040;-57
2021/12/24 12:25:11;;;;;;;35.88;24.72;;;;;;;5.23;86.10;96269.62;1736874;82;21056;-56
2021/12/24 12:27:55;;;;;;;49.20;26.42;;;;;;;5.26;86.15;96266.89;1739208;82;21013;-57
2021/12/24 12:30:36;;;;;;;32.90;21.42;;;;;;;5.26;86.44;96268.23;1738008;80;21000;-56
2021/12/24 12:33:12;;;;;;;;;;;;;;;5.28;86.49;96260.14;1740284;82;21303;-57
2021/12/24 12:35:51;;;;;;;26.42;13.75;;;;;;;5.28;86.77;96272.77;1737313;82;20159;-57
2021/12/24 12:38:39;;;;;;;31.42;13.90;;;;;;;5.31;86.82;96281.07;1716472;81;21036;-57
2021/12/24 12:41:36;;;;;;;46.27;27.00;;;;;;;5.31;86.90;96280.27;1757099;80;20975;-57
2021/12/24 12:44:10;;;;;;;69.70;39.75;;;;;;;5.35;86.89;96269.99;1768125;79;21047;-57
2021/12/24 12:46:40;;;;;;;42.27;24.43;;;;;;;5.39;86.87;96280.97;1779523;80;21551;-57
2021/12/24 12:49:14;;;;;;;58.70;33.15;;;;;;;5.34;86.77;96272.42;1776892;79;21040;-57
2021/12/24 12:51:55;;;;;;;40.20;25.43;;;;;;;5.35;86.73;96274.56;1777004;80;21013;-57
2021/12/24 12:54:55;;;;;;;39.58;22.70;;;;;;;5.37;86.40;96277.20;1733988;81;21024;-57
2021/12/24 12:57:30;;;;;;;67.67;20.08;;;;;;;5.31;86.59;96273.55;1745396;82;21051;-57
2021/12/24 13:00:20;;;;;;;22.25;13.83;;;;;;;5.32;86.50;96284.55;1764504;80;22131;-57
2021/12/24 13:03:07;;;;;;;19.17;13.28;;;;;;;5.32;86.55;96297.44;1764103;81;21067;-57
2021/12/24 13:05:46;;;;;;;45.85;23.18;;;;;;;5.34;86.39;96299.83;1764158;80;20980;-57
2021/12/24 13:08:16;;;;;;;50.17;25.68;;;;;;;5.36;86.42;96301.13;1749771;80;22322;-57